Terminal Aerodrome Forecast
Issued by NWS

Home | Current Version | Previous Version | Text Only | Print | Product List | Glossary On
Versions: 1 2 3 4 5 6 7 8 9 10 11 12 13 14 15 16 17 18 19 20 21 22 23 24 25 26
000
FTUS45 KCYS 222320
TAFLAR
TAF
KLAR 222320Z 2300/2324 26028G38KT P6SM VCSH BKN080 OVC100
     FM230300 29018G28KT 5SM -SHSN BKN025 OVC050
      TEMPO 2303/2306 1SM -SN SCT005 OVC015
     FM230800 29014KT P6SM SCT005 OVC015
     FM231500 31015G25KT P6SM SCT015 BKN050=

USA.gov is the U.S. government's official web portal to all federal, state and local government web resources and services.